Time,TemperatureF,DewpointF,PressureIn,WindDirection,WindDirectionDegrees,WindSpeedMPH,WindSpeedGustMPH,Humidity,HourlyPrecipIn,Conditions,Clouds,dailyrainin,SoftwareType,DateUTC
2013-01-06 00:01:00,40.2,38.6,30.19,SSE,150,2.0,2.0,94,0.01,,---,0.06,VWS V14.01,2013-01-06 08:01:00,
2013-01-06 00:06:00,40.3,39.0,30.20,ENE,59,0.0,2.0,95,0.01,,---,0.00,VWS V14.01,2013-01-06 08:06:00,
2013-01-06 00:11:00,40.3,39.0,30.20,ENE,60,2.0,3.0,95,0.00,,---,0.00,VWS V14.01,2013-01-06 08:11:00,
2013-01-06 00:16:00,40.3,39.0,30.19,NE,42,4.0,5.0,95,0.00,,---,0.00,VWS V14.01,2013-01-06 08:16:00,
2013-01-06 00:21:00,40.3,39.0,30.19,NNE,28,1.0,3.0,95,0.01,,---,0.01,VWS V14.01,2013-01-06 08:21:00,
2013-01-06 00:26:00,40.3,39.0,30.19,SE,142,0.0,0.0,95,0.01,,---,0.01,VWS V14.01,2013-01-06 08:26:00,
2013-01-06 00:31:00,40.3,39.0,30.20,SE,140,0.0,0.0,95,0.01,,---,0.01,VWS V14.01,2013-01-06 08:31:00,
2013-01-06 00:36:00,40.4,39.1,30.20,SE,140,4.0,4.0,95,0.01,,---,0.01,VWS V14.01,2013-01-06 08:36:00,
2013-01-06 00:41:00,40.4,39.1,30.19,ENE,70,2.0,4.0,95,0.01,,---,0.01,VWS V14.01,2013-01-06 08:41:00,
2013-01-06 00:46:00,40.6,39.3,30.19,East,97,5.0,6.0,95,0.01,,---,0.01,VWS V14.01,2013-01-06 08:46:00,
2013-01-06 00:51:00,40.6,39.3,30.19,ESE,119,6.0,8.0,95,0.01,,---,0.01,VWS V14.01,2013-01-06 08:51:00,
2013-01-06 00:56:00,40.6,39.3,30.19,ESE,120,4.0,6.0,95,0.01,,---,0.01,VWS V14.01,2013-01-06 08:56:00,
2013-01-06 01:01:00,40.7,39.4,30.19,South,172,5.0,10.0,95,0.01,,---,0.01,VWS V14.01,2013-01-06 09:01:00,
2013-01-06 01:07:00,40.7,39.4,30.19,SSE,161,7.0,8.0,95,0.01,,---,0.01,VWS V14.01,2013-01-06 09:07:00,
2013-01-06 01:12:00,40.7,39.4,30.19,ESE,118,9.0,10.0,95,0.01,,---,0.01,VWS V14.01,2013-01-06 09:12:00,
2013-01-06 01:17:00,40.6,39.3,30.19,South,184,5.0,10.0,95,0.01,,---,0.01,VWS V14.01,2013-01-06 09:17:00,
2013-01-06 01:22:00,40.7,39.4,30.19,South,181,2.0,6.0,95,0.00,,---,0.01,VWS V14.01,2013-01-06 09:22:00,
2013-01-06 01:27:00,40.7,39.4,30.19,SW,214,2.0,9.0,95,0.00,,---,0.01,VWS V14.01,2013-01-06 09:27:00,
2013-01-06 01:32:00,40.7,39.4,30.20,South,187,2.0,5.0,95,0.00,,---,0.01,VWS V14.01,2013-01-06 09:32:00,
2013-01-06 01:37:00,40.7,39.4,30.20,SE,128,2.0,5.0,95,0.00,,---,0.01,VWS V14.01,2013-01-06 09:37:00,
2013-01-06 01:42:00,40.7,39.1,30.20,ESE,110,4.0,6.0,94,0.00,,---,0.01,VWS V14.01,2013-01-06 09:42:00,
2013-01-06 01:47:00,40.7,39.1,30.20,SSW,203,2.0,6.0,94,0.00,,---,0.01,VWS V14.01,2013-01-06 09:47:00,
2013-01-06 01:52:00,40.7,39.1,30.20,SSE,166,0.0,1.0,94,0.00,,---,0.01,VWS V14.01,2013-01-06 09:52:00,
2013-01-06 01:57:00,40.7,39.1,30.21,SSE,150,0.0,1.0,94,0.00,,---,0.01,VWS V14.01,2013-01-06 09:57:00,
2013-01-06 02:02:00,40.7,39.1,30.21,SE,140,5.0,7.0,94,0.00,,---,0.01,VWS V14.01,2013-01-06 10:02:00,
2013-01-06 02:07:00,40.7,39.1,30.21,ESE,117,0.0,4.0,94,0.00,,---,0.01,VWS V14.01,2013-01-06 10:07:00,
2013-01-06 02:12:00,40.7,39.1,30.21,ESE,117,2.0,7.0,94,0.00,,---,0.01,VWS V14.01,2013-01-06 10:12:00,
2013-01-06 02:17:00,40.7,39.1,30.22,SSW,193,2.0,4.0,94,0.00,,---,0.01,VWS V14.01,2013-01-06 10:17:00,
2013-01-06 02:22:00,40.7,39.1,30.22,South,175,4.0,5.0,94,0.00,,---,0.01,VWS V14.01,2013-01-06 10:22:00,
2013-01-06 02:27:00,41.0,39.4,30.22,SSW,198,3.0,5.0,94,0.00,,---,0.01,VWS V14.01,2013-01-06 10:27:00,
2013-01-06 02:33:00,41.0,39.4,30.22,South,187,4.0,5.0,94,0.00,,---,0.01,VWS V14.01,2013-01-06 10:33:00,
2013-01-06 02:38:00,41.0,41.0,30.22,SSE,164,5.0,5.0,100,0.00,,---,0.01,VWS V14.01,2013-01-06 10:38:00,
2013-01-06 02:43:00,41.0,39.4,30.22,SSE,160,9.0,9.0,94,0.00,,---,0.01,VWS V14.01,2013-01-06 10:43:00,
2013-01-06 02:48:00,41.1,39.5,30.22,SSE,166,8.0,8.0,94,0.00,,---,0.01,VWS V14.01,2013-01-06 10:48:00,
2013-01-06 02:53:00,41.1,39.2,30.22,South,172,2.0,7.0,93,0.00,,---,0.01,VWS V14.01,2013-01-06 10:53:00,
2013-01-06 02:58:00,41.1,39.2,30.22,South,190,4.0,7.0,93,0.00,,---,0.01,VWS V14.01,2013-01-06 10:58:00,
2013-01-06 03:04:00,41.2,39.3,30.22,SSE,157,7.0,7.0,93,0.00,,---,0.01,VWS V14.01,2013-01-06 11:04:00,
2013-01-06 03:09:00,41.2,39.3,30.21,SSW,209,4.0,8.0,93,0.00,,---,0.01,VWS V14.01,2013-01-06 11:09:00,
2013-01-06 03:14:00,41.2,39.3,30.22,South,189,6.0,8.0,93,0.00,,---,0.01,VWS V14.01,2013-01-06 11:14:00,
2013-01-06 03:19:00,41.2,39.3,30.21,SSW,200,6.0,10.0,93,0.00,,---,0.01,VWS V14.01,2013-01-06 11:19:00,
2013-01-06 03:24:00,41.2,39.3,30.21,SSW,212,6.0,14.0,93,0.00,,---,0.01,VWS V14.01,2013-01-06 11:24:00,
2013-01-06 03:29:00,41.2,39.3,30.21,South,187,8.0,10.0,93,0.00,,---,0.01,VWS V14.01,2013-01-06 11:29:00,
2013-01-06 03:34:00,41.2,39.3,30.20,South,182,11.0,13.0,93,0.00,,---,0.01,VWS V14.01,2013-01-06 11:34:00,
2013-01-06 03:39:00,41.2,39.3,30.20,SSW,208,4.0,4.0,93,0.00,,---,0.01,VWS V14.01,2013-01-06 11:39:00,
2013-01-06 03:44:00,41.2,39.3,30.20,SSE,167,7.0,15.0,93,0.00,,---,0.01,VWS V14.01,2013-01-06 11:44:00,
2013-01-06 03:50:00,41.2,39.3,30.20,SSW,205,8.0,13.0,93,0.00,,---,0.01,VWS V14.01,2013-01-06 11:50:00,
2013-01-06 03:55:00,41.2,39.3,30.20,South,182,6.0,10.0,93,0.00,,---,0.01,VWS V14.01,2013-01-06 11:55:00,
2013-01-06 04:00:00,41.2,39.3,30.20,SSW,202,5.0,8.0,93,0.00,,---,0.01,VWS V14.01,2013-01-06 12:00:00,
2013-01-06 04:05:00,41.3,39.2,30.20,South,175,9.0,9.0,92,0.00,,---,0.01,VWS V14.01,2013-01-06 12:05:00,
2013-01-06 04:10:00,41.3,39.2,30.19,SSE,163,9.0,10.0,92,0.00,,---,0.01,VWS V14.01,2013-01-06 12:10:00,
2013-01-06 04:15:00,41.4,39.2,30.19,SSW,198,5.0,11.0,92,0.00,,---,0.01,VWS V14.01,2013-01-06 12:15:00,
2013-01-06 04:21:00,41.4,39.2,30.19,South,182,3.0,5.0,92,0.00,,---,0.01,VWS V14.01,2013-01-06 12:21:00,
2013-01-06 04:26:00,41.4,39.2,30.19,South,186,2.0,6.0,92,0.00,,---,0.01,VWS V14.01,2013-01-06 12:26:00,
2013-01-06 04:31:00,41.4,39.2,30.19,SSW,201,7.0,7.0,92,0.00,,---,0.01,VWS V14.01,2013-01-06 12:31:00,
2013-01-06 04:36:00,41.3,38.9,30.19,South,171,8.0,9.0,91,0.00,,---,0.01,VWS V14.01,2013-01-06 12:36:00,
2013-01-06 04:41:00,41.4,39.0,30.19,South,178,6.0,7.0,91,0.00,,---,0.01,VWS V14.01,2013-01-06 12:41:00,
2013-01-06 04:46:00,41.4,39.0,30.19,SSW,195,3.0,8.0,91,0.00,,---,0.01,VWS V14.01,2013-01-06 12:46:00,
2013-01-06 04:51:00,41.3,38.9,30.18,SSW,194,5.0,8.0,91,0.00,,---,0.01,VWS V14.01,2013-01-06 12:51:00,
2013-01-06 04:56:00,41.4,39.0,30.18,SSW,205,7.0,8.0,91,0.00,,---,0.01,VWS V14.01,2013-01-06 12:56:00,
2013-01-06 05:01:00,41.5,39.1,30.19,SW,217,5.0,9.0,91,0.00,,---,0.01,VWS V14.01,2013-01-06 13:01:00,
2013-01-06 05:07:00,41.6,38.9,30.18,South,188,4.0,5.0,90,0.00,,---,0.01,VWS V14.01,2013-01-06 13:07:00,
2013-01-06 05:12:00,41.7,39.0,30.18,SSW,193,5.0,9.0,90,0.00,,---,0.01,VWS V14.01,2013-01-06 13:12:00,
2013-01-06 05:17:00,41.8,39.1,30.18,SSW,192,3.0,5.0,90,0.00,,---,0.01,VWS V14.01,2013-01-06 13:17:00,
2013-01-06 05:22:00,41.9,38.9,30.18,SSW,202,3.0,8.0,89,0.00,,---,0.01,VWS V14.01,2013-01-06 13:22:00,
2013-01-06 05:27:00,41.9,38.9,30.19,SE,145,2.0,2.0,89,0.00,,---,0.01,VWS V14.01,2013-01-06 13:27:00,
2013-01-06 05:32:00,41.9,38.9,30.19,SSW,199,2.0,2.0,89,0.00,,---,0.01,VWS V14.01,2013-01-06 13:32:00,
2013-01-06 05:38:00,41.9,38.9,30.18,South,173,4.0,6.0,89,0.00,,---,0.01,VWS V14.01,2013-01-06 13:38:00,
2013-01-06 05:43:00,41.9,38.9,30.18,SSE,152,6.0,6.0,89,0.00,,---,0.01,VWS V14.01,2013-01-06 13:43:00,
2013-01-06 05:48:00,41.8,38.8,30.18,SSW,195,1.0,3.0,89,0.00,,---,0.01,VWS V14.01,2013-01-06 13:48:00,
2013-01-06 05:53:00,41.8,38.8,30.18,SSW,195,0.0,2.0,89,0.00,,---,0.01,VWS V14.01,2013-01-06 13:53:00,
2013-01-06 05:58:00,41.8,38.8,30.18,SSE,168,4.0,6.0,89,0.00,,---,0.01,VWS V14.01,2013-01-06 13:58:00,
2013-01-06 06:03:00,41.8,38.8,30.19,SSW,194,5.0,7.0,89,0.00,,---,0.01,VWS V14.01,2013-01-06 14:03:00,
2013-01-06 06:08:00,41.8,38.8,30.19,South,179,2.0,4.0,89,0.00,,---,0.01,VWS V14.01,2013-01-06 14:08:00,
2013-01-06 06:13:00,41.8,38.5,30.19,SSW,192,4.0,9.0,88,0.00,,---,0.01,VWS V14.01,2013-01-06 14:13:00,
2013-01-06 06:18:00,41.9,38.6,30.19,SE,137,4.0,7.0,88,0.00,,---,0.01,VWS V14.01,2013-01-06 14:18:00,
2013-01-06 06:23:00,42.0,38.7,30.19,ESE,121,2.0,6.0,88,0.00,,---,0.01,VWS V14.01,2013-01-06 14:23:00,
2013-01-06 06:28:00,42.0,38.7,30.19,South,174,2.0,2.0,88,0.00,,---,0.01,VWS V14.01,2013-01-06 14:28:00,
2013-01-06 06:33:00,42.0,38.4,30.19,South,183,3.0,7.0,87,0.00,,---,0.01,VWS V14.01,2013-01-06 14:33:00,
2013-01-06 06:38:00,42.0,38.7,30.19,SSW,193,2.0,3.0,88,0.00,,---,0.01,VWS V14.01,2013-01-06 14:38:00,
2013-01-06 06:43:00,42.0,38.4,30.19,SSW,193,0.0,0.0,87,0.00,,---,0.01,VWS V14.01,2013-01-06 14:43:00,
2013-01-06 06:48:00,42.1,38.5,30.19,ESE,122,2.0,6.0,87,0.00,,---,0.01,VWS V14.01,2013-01-06 14:48:00,
2013-01-06 06:53:00,42.2,38.6,30.19,SSW,194,4.0,10.0,87,0.00,,---,0.01,VWS V14.01,2013-01-06 14:53:00,
2013-01-06 06:58:00,42.2,38.3,30.19,SE,131,4.0,6.0,86,0.00,,---,0.01,VWS V14.01,2013-01-06 14:58:00,
2013-01-06 07:04:00,42.2,38.3,30.19,South,181,3.0,3.0,86,0.00,,---,0.01,VWS V14.01,2013-01-06 15:04:00,
2013-01-06 07:09:00,42.0,38.4,30.18,ESE,109,6.0,7.0,87,0.00,,---,0.01,VWS V14.01,2013-01-06 15:09:00,
2013-01-06 07:14:00,41.9,38.0,30.18,SE,131,6.0,7.0,86,0.00,,---,0.01,VWS V14.01,2013-01-06 15:14:00,
2013-01-06 07:19:00,41.8,38.2,30.19,SSE,148,2.0,5.0,87,0.00,,---,0.01,VWS V14.01,2013-01-06 15:19:00,
2013-01-06 07:24:00,41.6,38.0,30.19,ESE,112,2.0,5.0,87,0.00,,---,0.01,VWS V14.01,2013-01-06 15:24:00,
2013-01-06 07:29:00,41.6,38.0,30.19,ESE,111,1.0,1.0,87,0.00,,---,0.01,VWS V14.01,2013-01-06 15:29:00,
2013-01-06 07:34:00,41.6,38.0,30.19,ESE,103,2.0,2.0,87,0.00,,---,0.01,VWS V14.01,2013-01-06 15:34:00,
2013-01-06 07:39:00,41.6,38.3,30.19,South,188,1.0,2.0,88,0.00,,---,0.01,VWS V14.01,2013-01-06 15:39:00,
2013-01-06 07:44:00,41.5,38.2,30.19,South,188,0.0,0.0,88,0.00,,---,0.01,VWS V14.01,2013-01-06 15:44:00,
2013-01-06 07:50:00,41.5,38.2,30.19,South,188,0.0,0.0,88,0.00,,---,0.01,VWS V14.01,2013-01-06 15:50:00,
2013-01-06 07:55:00,41.4,38.1,30.20,SW,223,1.0,2.0,88,0.00,,---,0.01,VWS V14.01,2013-01-06 15:55:00,
2013-01-06 08:00:00,41.4,38.4,30.21,NNW,331,0.0,2.0,89,0.00,,---,0.01,VWS V14.01,2013-01-06 16:00:00,
2013-01-06 08:05:00,41.5,38.5,30.21,NE,36,0.0,0.0,89,0.00,,---,0.01,VWS V14.01,2013-01-06 16:05:00,
2013-01-06 08:10:00,41.5,38.8,30.21,WSW,242,0.0,0.0,90,0.00,,---,0.01,VWS V14.01,2013-01-06 16:10:00,
2013-01-06 08:15:00,41.5,38.8,30.21,South,173,2.0,5.0,90,0.00,,---,0.01,VWS V14.01,2013-01-06 16:15:00,
2013-01-06 08:20:00,41.6,38.9,30.21,SSE,167,4.0,5.0,90,0.00,,---,0.01,VWS V14.01,2013-01-06 16:20:00,
2013-01-06 08:25:00,41.6,38.9,30.21,SSW,213,1.0,3.0,90,0.00,,---,0.01,VWS V14.01,2013-01-06 16:25:00,
2013-01-06 08:30:00,41.6,38.9,30.21,SSE,167,1.0,4.0,90,0.00,,---,0.01,VWS V14.01,2013-01-06 16:30:00,
2013-01-06 08:36:00,41.6,39.2,30.21,SSW,196,0.0,1.0,91,0.00,,---,0.01,VWS V14.01,2013-01-06 16:36:00,
2013-01-06 08:41:00,41.5,39.1,30.22,SSW,207,2.0,3.0,91,0.00,,---,0.01,VWS V14.01,2013-01-06 16:41:00,
2013-01-06 08:46:00,41.6,39.2,30.22,SW,217,2.0,2.0,91,0.00,,---,0.01,VWS V14.01,2013-01-06 16:46:00,
2013-01-06 08:51:00,41.6,38.9,30.22,South,170,4.0,4.0,90,0.00,,---,0.01,VWS V14.01,2013-01-06 16:51:00,
2013-01-06 08:56:00,41.7,39.0,30.22,SSE,167,8.0,9.0,90,0.00,,---,0.01,VWS V14.01,2013-01-06 16:56:00,
2013-01-06 09:01:00,41.8,39.1,30.22,SSE,162,7.0,9.0,90,0.00,,---,0.01,VWS V14.01,2013-01-06 17:01:00,
2013-01-06 09:06:00,41.8,39.1,30.21,South,171,9.0,12.0,90,0.00,,---,0.01,VWS V14.01,2013-01-06 17:06:00,
2013-01-06 09:11:00,41.9,39.2,30.21,SSE,161,10.0,10.0,90,0.00,,---,0.01,VWS V14.01,2013-01-06 17:11:00,
2013-01-06 09:16:00,41.9,39.2,30.22,SW,226,8.0,8.0,90,0.00,,---,0.01,VWS V14.01,2013-01-06 17:16:00,
2013-01-06 09:21:00,41.9,38.9,30.22,South,169,11.0,14.0,89,0.00,,---,0.01,VWS V14.01,2013-01-06 17:21:00,
2013-01-06 09:27:00,42.0,39.0,30.22,South,188,10.0,10.0,89,0.00,,---,0.01,VWS V14.01,2013-01-06 17:27:00,
2013-01-06 09:32:00,42.1,39.1,30.22,SSE,152,8.0,9.0,89,0.00,,---,0.01,VWS V14.01,2013-01-06 17:32:00,
2013-01-06 09:37:00,42.3,39.3,30.22,South,179,1.0,7.0,89,0.00,,---,0.01,VWS V14.01,2013-01-06 17:37:00,
2013-01-06 09:42:00,42.4,39.4,30.22,SE,129,1.0,5.0,89,0.00,,---,0.01,VWS V14.01,2013-01-06 17:42:00,
2013-01-06 09:47:00,42.6,39.3,30.22,ENE,67,2.0,4.0,88,0.00,,---,0.01,VWS V14.01,2013-01-06 17:47:00,
2013-01-06 09:52:00,42.9,39.6,30.22,ENE,67,1.0,1.0,88,0.00,,---,0.01,VWS V14.01,2013-01-06 17:52:00,
2013-01-06 09:57:00,43.2,39.6,30.23,NNE,17,3.0,3.0,87,0.00,,---,0.01,VWS V14.01,2013-01-06 17:57:00,
2013-01-06 10:02:00,43.6,40.0,30.23,SE,139,0.0,4.0,87,0.00,,---,0.01,VWS V14.01,2013-01-06 18:02:00,
2013-01-06 10:08:00,44.0,40.1,30.23,SSW,202,2.0,5.0,86,0.00,,---,0.01,VWS V14.01,2013-01-06 18:08:00,
2013-01-06 10:13:00,44.3,40.1,30.23,SSW,211,1.0,1.0,85,0.00,,---,0.01,VWS V14.01,2013-01-06 18:13:00,
2013-01-06 10:18:00,44.6,39.8,30.23,SSE,148,9.0,9.0,83,0.00,,---,0.01,VWS V14.01,2013-01-06 18:18:00,
2013-01-06 10:23:00,44.6,40.1,30.23,SE,130,5.0,7.0,84,0.00,,---,0.01,VWS V14.01,2013-01-06 18:23:00,
2013-01-06 10:28:00,44.6,39.8,30.23,SSW,209,4.0,5.0,83,0.00,,---,0.01,VWS V14.01,2013-01-06 18:28:00,
2013-01-06 10:33:00,44.4,39.6,30.23,SW,236,2.0,10.0,83,0.00,,---,0.01,VWS V14.01,2013-01-06 18:33:00,
2013-01-06 10:39:00,44.3,39.5,30.24,ESE,121,2.0,5.0,83,0.00,,---,0.01,VWS V14.01,2013-01-06 18:39:00,
2013-01-06 10:44:00,44.2,39.7,30.23,SSE,155,2.0,4.0,84,0.00,,---,0.01,VWS V14.01,2013-01-06 18:44:00,
2013-01-06 10:49:00,44.2,39.7,30.23,SSE,159,7.0,7.0,84,0.00,,---,0.01,VWS V14.01,2013-01-06 18:49:00,
2013-01-06 10:54:00,44.3,39.8,30.23,SSE,165,4.0,10.0,84,0.00,,---,0.01,VWS V14.01,2013-01-06 18:54:00,
2013-01-06 10:59:00,44.3,39.8,30.22,SE,145,5.0,7.0,84,0.00,,---,0.01,VWS V14.01,2013-01-06 18:59:00,
2013-01-06 11:04:00,44.3,39.8,30.22,SE,144,2.0,2.0,84,0.00,,---,0.01,VWS V14.01,2013-01-06 19:04:00,
2013-01-06 11:09:00,44.3,39.8,30.22,SSE,155,4.0,4.0,84,0.00,,---,0.01,VWS V14.01,2013-01-06 19:09:00,
2013-01-06 11:15:00,44.3,39.8,30.22,South,169,2.0,2.0,84,0.00,,---,0.01,VWS V14.01,2013-01-06 19:15:00,
2013-01-06 11:20:00,44.3,39.8,30.22,SSW,199,5.0,5.0,84,0.00,,---,0.01,VWS V14.01,2013-01-06 19:20:00,
2013-01-06 11:25:00,44.2,39.7,30.21,SSW,209,0.0,4.0,84,0.00,,---,0.01,VWS V14.01,2013-01-06 19:25:00,
2013-01-06 11:30:00,44.3,39.8,30.21,South,172,4.0,5.0,84,0.00,,---,0.01,VWS V14.01,2013-01-06 19:30:00,
2013-01-06 11:35:00,44.3,39.8,30.21,SSE,165,0.0,2.0,84,0.00,,---,0.01,VWS V14.01,2013-01-06 19:35:00,
2013-01-06 11:45:00,44.5,39.7,30.20,South,189,4.0,8.0,83,0.00,,---,0.01,VWS V14.01,2013-01-06 19:45:00,
2013-01-06 11:51:00,44.6,39.8,30.20,South,186,2.0,4.0,83,0.00,,---,0.01,VWS V14.01,2013-01-06 19:51:00,
2013-01-06 11:57:00,44.7,39.9,30.19,SSW,206,6.0,6.0,83,0.00,,---,0.01,VWS V14.01,2013-01-06 19:57:00,
2013-01-06 12:03:00,44.8,40.0,30.19,South,188,10.0,10.0,83,0.00,,---,0.01,VWS V14.01,2013-01-06 20:03:00,
2013-01-06 12:08:00,44.7,39.5,30.19,SSW,194,10.0,10.0,82,0.00,,---,0.01,VWS V14.01,2013-01-06 20:08:00,
2013-01-06 12:11:00,44.7,39.9,30.18,SW,219,6.0,12.0,83,0.00,,---,0.01,VWS V14.01,2013-01-06 20:11:00,
2013-01-06 12:14:00,44.7,39.5,30.18,SW,227,3.0,5.0,82,0.00,,---,0.01,VWS V14.01,2013-01-06 20:14:00,
2013-01-06 12:19:00,44.8,39.3,30.18,SSW,207,5.0,5.0,81,0.00,,---,0.01,VWS V14.01,2013-01-06 20:19:00,
2013-01-06 12:24:00,44.9,39.8,30.18,SSE,155,11.0,13.0,82,0.00,,---,0.01,VWS V14.01,2013-01-06 20:24:00,
2013-01-06 12:29:00,45.0,39.5,30.18,SW,224,3.0,7.0,81,0.00,,---,0.01,VWS V14.01,2013-01-06 20:29:00,
2013-01-06 12:34:00,45.1,39.6,30.18,SSW,202,6.0,9.0,81,0.00,,---,0.01,VWS V14.01,2013-01-06 20:34:00,
2013-01-06 12:39:00,45.1,39.6,30.18,SSW,201,5.0,7.0,81,0.00,,---,0.01,VWS V14.01,2013-01-06 20:39:00,
2013-01-06 12:44:00,45.2,39.7,30.18,SSE,161,9.0,9.0,81,0.00,,---,0.01,VWS V14.01,2013-01-06 20:44:00,
2013-01-06 12:49:00,45.4,39.3,30.18,SSW,193,7.0,8.0,79,0.00,,---,0.01,VWS V14.01,2013-01-06 20:49:00,
2013-01-06 12:55:00,45.5,39.7,30.18,SSW,200,8.0,8.0,80,0.00,,---,0.01,VWS V14.01,2013-01-06 20:55:00,
2013-01-06 13:00:00,45.5,39.7,30.18,SSW,193,13.0,13.0,80,0.00,,---,0.01,VWS V14.01,2013-01-06 21:00:00,
2013-01-06 13:04:00,45.6,39.5,30.17,South,175,9.0,12.0,79,0.00,,---,0.01,VWS V14.01,2013-01-06 21:04:00,
2013-01-06 13:10:00,45.6,39.8,30.18,SW,214,3.0,5.0,80,0.00,,---,0.01,VWS V14.01,2013-01-06 21:10:00,
2013-01-06 13:15:00,45.7,39.9,30.18,SSW,213,7.0,10.0,80,0.00,,---,0.01,VWS V14.01,2013-01-06 21:15:00,
2013-01-06 13:20:00,45.6,39.8,30.18,SSW,203,9.0,10.0,80,0.00,,---,0.01,VWS V14.01,2013-01-06 21:20:00,
2013-01-06 13:25:00,45.5,40.0,30.18,South,186,6.0,8.0,81,0.00,,---,0.01,VWS V14.01,2013-01-06 21:25:00,
2013-01-06 13:30:00,45.3,40.1,30.18,SSW,204,3.0,5.0,82,0.00,,---,0.01,VWS V14.01,2013-01-06 21:30:00,
2013-01-06 13:35:00,45.2,40.3,30.18,South,191,3.0,4.0,83,0.00,,---,0.01,VWS V14.01,2013-01-06 21:35:00,
2013-01-06 13:40:00,45.1,40.2,30.17,South,186,4.0,6.0,83,0.00,,---,0.01,VWS V14.01,2013-01-06 21:40:00,
2013-01-06 13:45:00,45.1,40.2,30.17,SSW,194,2.0,4.0,83,0.00,,---,0.01,VWS V14.01,2013-01-06 21:45:00,
2013-01-06 13:50:00,45.1,40.2,30.17,SSW,211,2.0,3.0,83,0.00,,---,0.01,VWS V14.01,2013-01-06 21:50:00,
2013-01-06 13:55:00,45.1,40.6,30.17,SSW,211,1.0,5.0,84,0.00,,---,0.01,VWS V14.01,2013-01-06 21:55:00,
2013-01-06 14:00:00,45.0,40.5,30.17,SSW,210,0.0,1.0,84,0.00,,---,0.01,VWS V14.01,2013-01-06 22:00:00,
2013-01-06 14:05:00,45.0,40.5,30.17,SW,215,2.0,2.0,84,0.00,,---,0.01,VWS V14.01,2013-01-06 22:05:00,
2013-01-06 14:11:00,45.0,40.8,30.17,SW,215,0.0,0.0,85,0.00,,---,0.01,VWS V14.01,2013-01-06 22:11:00,
2013-01-06 14:16:00,44.9,41.0,30.17,SW,215,0.0,0.0,86,0.00,,---,0.01,VWS V14.01,2013-01-06 22:16:00,
2013-01-06 14:21:00,45.0,41.4,30.17,SW,215,0.0,0.0,87,0.00,,---,0.01,VWS V14.01,2013-01-06 22:21:00,
2013-01-06 14:26:00,44.9,41.3,30.17,SW,215,0.0,0.0,87,0.01,,---,0.02,VWS V14.01,2013-01-06 22:26:00,
2013-01-06 14:31:00,44.8,40.9,30.17,South,173,0.0,1.0,86,0.01,,---,0.02,VWS V14.01,2013-01-06 22:31:00,
2013-01-06 14:36:00,44.7,40.8,30.17,SE,131,1.0,4.0,86,0.01,,---,0.02,VWS V14.01,2013-01-06 22:36:00,
2013-01-06 14:41:00,44.7,40.8,30.17,SSE,157,4.0,4.0,86,0.01,,---,0.02,VWS V14.01,2013-01-06 22:41:00,
2013-01-06 14:46:00,44.6,40.7,30.17,SSE,159,0.0,1.0,86,0.01,,---,0.02,VWS V14.01,2013-01-06 22:46:00,
2013-01-06 14:51:00,44.6,40.7,30.17,SSE,159,2.0,2.0,86,0.01,,---,0.02,VWS V14.01,2013-01-06 22:51:00,
2013-01-06 14:56:00,44.6,40.7,30.17,SE,140,2.0,5.0,86,0.01,,---,0.02,VWS V14.01,2013-01-06 22:56:00,
2013-01-06 15:01:00,44.6,40.7,30.16,South,190,3.0,5.0,86,0.01,,---,0.02,VWS V14.01,2013-01-06 23:01:00,
2013-01-06 15:06:00,44.6,40.7,30.16,South,169,4.0,6.0,86,0.01,,---,0.02,VWS V14.01,2013-01-06 23:06:00,
2013-01-06 15:11:00,44.7,40.8,30.16,SE,145,1.0,4.0,86,0.01,,---,0.02,VWS V14.01,2013-01-06 23:11:00,
2013-01-06 15:16:00,44.7,40.8,30.15,SE,136,5.0,5.0,86,0.01,,---,0.02,VWS V14.01,2013-01-06 23:16:00,
2013-01-06 15:22:00,44.7,40.8,30.15,SSE,165,2.0,4.0,86,0.01,,---,0.02,VWS V14.01,2013-01-06 23:22:00,
2013-01-06 15:27:00,44.7,40.5,30.15,SSE,165,5.0,6.0,85,0.00,,---,0.02,VWS V14.01,2013-01-06 23:27:00,
2013-01-06 15:32:00,44.7,40.2,30.14,SSW,192,1.0,3.0,84,0.00,,---,0.02,VWS V14.01,2013-01-06 23:32:00,
2013-01-06 15:37:00,44.9,40.4,30.14,South,191,1.0,2.0,84,0.00,,---,0.02,VWS V14.01,2013-01-06 23:37:00,
2013-01-06 15:42:00,44.9,40.4,30.14,SSW,198,3.0,5.0,84,0.00,,---,0.02,VWS V14.01,2013-01-06 23:42:00,
2013-01-06 15:47:00,44.9,40.4,30.15,SSW,198,2.0,3.0,84,0.00,,---,0.02,VWS V14.01,2013-01-06 23:47:00,
2013-01-06 15:53:00,44.9,40.4,30.15,South,182,1.0,1.0,84,0.00,,---,0.02,VWS V14.01,2013-01-06 23:53:00,
2013-01-06 15:58:00,44.9,41.0,30.15,South,182,0.0,0.0,86,0.00,,---,0.02,VWS V14.01,2013-01-06 23:58:00,
2013-01-06 16:03:00,44.8,40.9,30.15,South,182,0.0,0.0,86,0.00,,---,0.02,VWS V14.01,2013-01-07 00:03:00,
2013-01-06 16:08:00,44.7,40.8,30.15,South,182,0.0,0.0,86,0.00,,---,0.02,VWS V14.01,2013-01-07 00:08:00,
2013-01-06 16:13:00,44.6,40.4,30.15,South,182,2.0,2.0,85,0.00,,---,0.02,VWS V14.01,2013-01-07 00:13:00,
2013-01-06 16:19:00,44.6,40.7,30.15,South,182,3.0,3.0,86,0.00,,---,0.02,VWS V14.01,2013-01-07 00:19:00,
2013-01-06 16:24:00,44.6,40.4,30.15,SSW,205,5.0,5.0,85,0.00,,---,0.02,VWS V14.01,2013-01-07 00:24:00,
2013-01-06 16:29:00,44.5,40.3,30.15,SSE,167,0.0,4.0,85,0.00,,---,0.02,VWS V14.01,2013-01-07 00:29:00,
2013-01-06 16:34:00,44.5,40.3,30.15,SE,135,4.0,5.0,85,0.00,,---,0.02,VWS V14.01,2013-01-07 00:34:00,
2013-01-06 16:39:00,44.5,40.3,30.15,SE,139,4.0,7.0,85,0.00,,---,0.02,VWS V14.01,2013-01-07 00:39:00,
2013-01-06 16:45:00,44.5,40.6,30.14,SE,126,1.0,2.0,86,0.00,,---,0.02,VWS V14.01,2013-01-07 00:45:00,
2013-01-06 16:50:00,44.5,40.6,30.14,East,83,4.0,6.0,86,0.00,,---,0.02,VWS V14.01,2013-01-07 00:50:00,
2013-01-06 16:55:00,44.3,40.7,30.14,East,80,3.0,4.0,87,0.00,,---,0.02,VWS V14.01,2013-01-07 00:55:00,
2013-01-06 17:00:00,44.3,40.1,30.14,SE,130,2.0,5.0,85,0.00,,---,0.02,VWS V14.01,2013-01-07 01:00:00,
2013-01-06 17:05:00,44.3,40.1,30.14,SSE,161,4.0,5.0,85,0.00,,---,0.02,VWS V14.01,2013-01-07 01:05:00,
2013-01-06 17:10:00,44.4,39.9,30.13,SSE,158,4.0,5.0,84,0.00,,---,0.02,VWS V14.01,2013-01-07 01:10:00,
2013-01-06 17:15:00,44.5,40.0,30.13,ESE,111,0.0,2.0,84,0.00,,---,0.02,VWS V14.01,2013-01-07 01:15:00,
2013-01-06 17:20:00,44.6,40.1,30.12,ESE,115,1.0,2.0,84,0.00,,---,0.02,VWS V14.01,2013-01-07 01:20:00,
2013-01-06 17:25:00,44.5,40.0,30.13,SSE,148,1.0,4.0,84,0.00,,---,0.02,VWS V14.01,2013-01-07 01:25:00,
2013-01-06 17:30:00,44.5,40.0,30.13,SSE,148,0.0,1.0,84,0.00,,---,0.02,VWS V14.01,2013-01-07 01:30:00,
2013-01-06 17:36:00,44.5,40.3,30.13,SSE,148,1.0,2.0,85,0.00,,---,0.02,VWS V14.01,2013-01-07 01:36:00,
2013-01-06 17:41:00,44.4,40.2,30.13,SSE,148,0.0,0.0,85,0.00,,---,0.02,VWS V14.01,2013-01-07 01:41:00,
2013-01-06 17:46:00,44.4,40.2,30.12,SSE,148,1.0,2.0,85,0.01,,---,0.03,VWS V14.01,2013-01-07 01:46:00,
2013-01-06 17:51:00,44.3,40.4,30.12,SSE,148,0.0,1.0,86,0.01,,---,0.03,VWS V14.01,2013-01-07 01:51:00,
2013-01-06 17:56:00,44.2,40.6,30.12,SSE,148,0.0,0.0,87,0.01,,---,0.03,VWS V14.01,2013-01-07 01:56:00,
2013-01-06 18:01:00,44.1,40.8,30.12,SSE,148,0.0,1.0,88,0.01,,---,0.03,VWS V14.01,2013-01-07 02:01:00,
2013-01-06 18:06:00,43.9,40.6,30.12,SSE,148,1.0,2.0,88,0.02,,---,0.04,VWS V14.01,2013-01-07 02:06:00,
2013-01-06 18:11:00,43.7,40.7,30.12,SSE,148,1.0,1.0,89,0.02,,---,0.04,VWS V14.01,2013-01-07 02:11:00,
2013-01-06 18:16:00,43.5,40.5,30.12,SSE,148,1.0,2.0,89,0.02,,---,0.04,VWS V14.01,2013-01-07 02:16:00,
2013-01-06 18:21:00,43.4,40.7,30.13,SSW,212,0.0,3.0,90,0.02,,---,0.04,VWS V14.01,2013-01-07 02:21:00,
2013-01-06 18:26:00,43.4,40.4,30.12,SSW,205,4.0,4.0,89,0.02,,---,0.04,VWS V14.01,2013-01-07 02:26:00,
2013-01-06 18:32:00,43.4,40.1,30.12,South,187,5.0,6.0,88,0.03,,---,0.05,VWS V14.01,2013-01-07 02:32:00,
2013-01-06 18:37:00,43.6,40.3,30.12,SE,130,0.0,4.0,88,0.03,,---,0.05,VWS V14.01,2013-01-07 02:37:00,
2013-01-06 18:42:00,43.6,40.3,30.12,SW,217,5.0,6.0,88,0.03,,---,0.05,VWS V14.01,2013-01-07 02:42:00,
2013-01-06 18:47:00,43.5,40.2,30.12,SW,218,5.0,9.0,88,0.02,,---,0.05,VWS V14.01,2013-01-07 02:47:00,
2013-01-06 18:52:00,43.5,40.2,30.13,SSW,201,6.0,7.0,88,0.03,,---,0.06,VWS V14.01,2013-01-07 02:52:00,
2013-01-06 18:57:00,43.4,40.4,30.13,WSW,248,2.0,5.0,89,0.03,,---,0.06,VWS V14.01,2013-01-07 02:57:00,
2013-01-06 19:02:00,43.3,40.6,30.13,SSW,192,1.0,4.0,90,0.03,,---,0.06,VWS V14.01,2013-01-07 03:02:00,
2013-01-06 19:08:00,43.2,40.5,30.13,SSE,167,4.0,4.0,90,0.03,,---,0.07,VWS V14.01,2013-01-07 03:08:00,
2013-01-06 19:13:00,43.1,40.4,30.12,SSE,163,2.0,4.0,90,0.03,,---,0.07,VWS V14.01,2013-01-07 03:13:00,
2013-01-06 19:18:00,42.9,40.2,30.12,SSE,159,2.0,5.0,90,0.04,,---,0.08,VWS V14.01,2013-01-07 03:18:00,
2013-01-06 19:23:00,42.9,40.2,30.12,SSE,165,0.0,0.0,90,0.04,,---,0.08,VWS V14.01,2013-01-07 03:23:00,
2013-01-06 19:28:00,42.8,40.4,30.12,SE,143,2.0,2.0,91,0.05,,---,0.09,VWS V14.01,2013-01-07 03:28:00,
2013-01-06 19:33:00,42.7,40.3,30.12,South,184,3.0,4.0,91,0.04,,---,0.09,VWS V14.01,2013-01-07 03:33:00,
2013-01-06 19:38:00,42.7,40.3,30.12,SSE,165,1.0,2.0,91,0.04,,---,0.09,VWS V14.01,2013-01-07 03:38:00,
2013-01-06 19:43:00,42.6,40.2,30.12,SSW,200,3.0,7.0,91,0.05,,---,0.10,VWS V14.01,2013-01-07 03:43:00,
2013-01-06 19:48:00,42.5,40.1,30.12,SSE,155,5.0,7.0,91,0.05,,---,0.10,VWS V14.01,2013-01-07 03:48:00,
2013-01-06 19:54:00,42.5,40.1,30.12,SSE,155,0.0,2.0,91,0.05,,---,0.11,VWS V14.01,2013-01-07 03:54:00,
2013-01-06 19:59:00,42.4,40.0,30.12,SE,128,2.0,4.0,91,0.05,,---,0.11,VWS V14.01,2013-01-07 03:59:00,
2013-01-06 20:04:00,42.4,40.2,30.12,SE,143,0.0,2.0,92,0.05,,---,0.11,VWS V14.01,2013-01-07 04:04:00,
2013-01-06 20:09:00,42.3,39.9,30.12,SE,144,0.0,1.0,91,0.05,,---,0.12,VWS V14.01,2013-01-07 04:09:00,
2013-01-06 20:14:00,42.3,40.2,30.12,SE,132,1.0,5.0,92,0.05,,---,0.12,VWS V14.01,2013-01-07 04:14:00,
2013-01-06 20:19:00,42.2,40.0,30.12,ESE,114,2.0,5.0,92,0.05,,---,0.13,VWS V14.01,2013-01-07 04:19:00,
2013-01-06 20:24:00,42.2,40.0,30.12,SE,137,5.0,7.0,92,0.05,,---,0.13,VWS V14.01,2013-01-07 04:24:00,
2013-01-06 20:29:00,42.1,40.0,30.11,SE,145,1.0,2.0,92,0.04,,---,0.13,VWS V14.01,2013-01-07 04:29:00,
2013-01-06 20:34:00,42.0,39.8,30.11,ESE,119,4.0,5.0,92,0.05,,---,0.14,VWS V14.01,2013-01-07 04:34:00,
2013-01-06 20:39:00,41.9,39.8,30.11,ESE,105,2.0,5.0,92,0.05,,---,0.14,VWS V14.01,2013-01-07 04:39:00,
2013-01-06 20:44:00,41.8,39.7,30.11,ESE,102,4.0,4.0,92,0.05,,---,0.15,VWS V14.01,2013-01-07 04:44:00,
2013-01-06 20:49:00,41.6,39.5,30.10,East,94,0.0,4.0,92,0.05,,---,0.15,VWS V14.01,2013-01-07 04:49:00,
2013-01-06 20:54:00,41.4,39.2,30.10,ESE,102,4.0,4.0,92,0.06,,---,0.16,VWS V14.01,2013-01-07 04:54:00,
2013-01-06 20:59:00,41.2,39.1,30.10,East,98,1.0,4.0,92,0.05,,---,0.16,VWS V14.01,2013-01-07 04:59:00,
2013-01-06 21:00:00,41.2,39.1,30.10,SE,126,4.0,4.0,92,0.05,,---,0.16,VWS V14.01,2013-01-07 05:00:00,
2013-01-06 21:01:00,41.1,39.0,30.10,ESE,107,2.0,2.0,92,0.06,,---,0.17,VWS V14.01,2013-01-07 05:01:00,
2013-01-06 21:07:00,40.9,39.0,30.10,ESE,107,1.0,1.0,93,0.05,,---,0.17,VWS V14.01,2013-01-07 05:07:00,
2013-01-06 21:12:00,40.8,38.9,30.09,East,83,0.0,0.0,93,0.06,,---,0.18,VWS V14.01,2013-01-07 05:12:00,
2013-01-06 21:17:00,40.7,38.8,30.09,ESE,123,4.0,4.0,93,0.06,,---,0.18,VWS V14.01,2013-01-07 05:17:00,
2013-01-06 21:22:00,40.6,38.7,30.08,SE,126,0.0,2.0,93,0.05,,---,0.18,VWS V14.01,2013-01-07 05:22:00,
2013-01-06 21:27:00,40.5,38.6,30.08,ESE,115,4.0,5.0,93,0.05,,---,0.18,VWS V14.01,2013-01-07 05:27:00,
2013-01-06 21:32:00,40.4,38.5,30.08,East,98,0.0,1.0,93,0.04,,---,0.18,VWS V14.01,2013-01-07 05:32:00,
2013-01-06 21:37:00,40.4,38.5,30.08,NE,40,0.0,2.0,93,0.04,,---,0.18,VWS V14.01,2013-01-07 05:37:00,
2013-01-06 21:42:00,40.4,38.5,30.08,NE,40,2.0,2.0,93,0.04,,---,0.18,VWS V14.01,2013-01-07 05:42:00,
2013-01-06 21:47:00,40.4,38.8,30.08,ENE,60,0.0,0.0,94,0.03,,---,0.18,VWS V14.01,2013-01-07 05:47:00,
2013-01-06 21:52:00,40.4,38.5,30.07,ENE,60,1.0,3.0,93,0.02,,---,0.18,VWS V14.01,2013-01-07 05:52:00,
2013-01-06 21:57:00,40.4,38.8,30.07,ENE,61,2.0,3.0,94,0.02,,---,0.18,VWS V14.01,2013-01-07 05:57:00,
2013-01-06 22:02:00,40.4,38.8,30.06,ENE,69,2.0,2.0,94,0.01,,---,0.18,VWS V14.01,2013-01-07 06:02:00,
2013-01-06 22:07:00,40.4,38.8,30.06,ENE,70,2.0,4.0,94,0.01,,---,0.18,VWS V14.01,2013-01-07 06:07:00,
2013-01-06 22:12:00,40.4,38.8,30.06,ENE,70,2.0,3.0,94,0.00,,---,0.18,VWS V14.01,2013-01-07 06:12:00,
2013-01-06 22:18:00,40.4,38.8,30.06,ENE,63,4.0,4.0,94,0.00,,---,0.18,VWS V14.01,2013-01-07 06:18:00,
2013-01-06 22:23:00,40.4,38.8,30.06,NE,53,3.0,3.0,94,0.01,,---,0.19,VWS V14.01,2013-01-07 06:23:00,
2013-01-06 22:28:00,40.4,38.8,30.06,NE,53,3.0,3.0,94,0.01,,---,0.19,VWS V14.01,2013-01-07 06:28:00,
2013-01-06 22:33:00,40.4,38.8,30.06,NE,53,3.0,3.0,94,0.01,,---,0.19,VWS V14.01,2013-01-07 06:33:00,
2013-01-06 22:38:00,40.4,39.1,30.05,NE,53,3.0,3.0,95,0.01,,---,0.19,VWS V14.01,2013-01-07 06:38:00,
2013-01-06 22:43:00,40.4,39.1,30.06,NE,53,3.0,3.0,95,0.01,,---,0.19,VWS V14.01,2013-01-07 06:43:00,
2013-01-06 22:48:00,40.4,39.1,30.05,NE,43,2.0,5.0,95,0.01,,---,0.19,VWS V14.01,2013-01-07 06:48:00,
2013-01-06 22:53:00,40.4,39.1,30.05,NE,55,2.0,3.0,95,0.02,,---,0.20,VWS V14.01,2013-01-07 06:53:00,
2013-01-06 22:58:00,40.4,39.1,30.04,ENE,63,2.0,4.0,95,0.02,,---,0.20,VWS V14.01,2013-01-07 06:58:00,
2013-01-06 23:03:00,40.4,39.1,30.04,ENE,57,4.0,5.0,95,0.02,,---,0.20,VWS V14.01,2013-01-07 07:03:00,
2013-01-06 23:08:00,40.4,39.1,30.04,ENE,59,4.0,4.0,95,0.02,,---,0.20,VWS V14.01,2013-01-07 07:08:00,
2013-01-06 23:13:00,40.4,39.1,30.04,NE,37,4.0,5.0,95,0.02,,---,0.20,VWS V14.01,2013-01-07 07:13:00,
2013-01-06 23:18:00,40.4,39.1,30.04,NE,53,3.0,4.0,95,0.02,,---,0.20,VWS V14.01,2013-01-07 07:18:00,
2013-01-06 23:23:00,40.3,39.0,30.03,NE,38,3.0,4.0,95,0.01,,---,0.20,VWS V14.01,2013-01-07 07:23:00,
2013-01-06 23:28:00,40.3,39.0,30.03,NE,55,3.0,5.0,95,0.01,,---,0.20,VWS V14.01,2013-01-07 07:28:00,
2013-01-06 23:33:00,40.2,38.9,30.03,NE,54,5.0,6.0,95,0.02,,---,0.21,VWS V14.01,2013-01-07 07:33:00,
2013-01-06 23:38:00,40.2,38.9,30.03,ENE,61,4.0,5.0,95,0.02,,---,0.21,VWS V14.01,2013-01-07 07:38:00,
2013-01-06 23:43:00,40.2,39.2,30.03,ENE,64,5.0,5.0,96,0.02,,---,0.21,VWS V14.01,2013-01-07 07:43:00,
2013-01-06 23:49:00,40.2,39.2,30.03,ENE,73,2.0,4.0,96,0.02,,---,0.21,VWS V14.01,2013-01-07 07:49:00,
2013-01-06 23:54:00,40.1,39.0,30.03,ENE,66,4.0,6.0,96,0.02,,---,0.22,VWS V14.01,2013-01-07 07:54:00,
2013-01-06 23:59:00,40.2,39.2,30.03,ENE,62,6.0,6.0,96,0.02,,---,0.22,VWS V14.01,2013-01-07 07:59:00,